Time;durP1;ratioP1;P1;durP2;ratioP2;P2;SDS_P1;SDS_P2;PMS_P1;PMS_P2;Temp;Humidity;BMP_temperature;BMP_pressure;BME280_temperature;BME280_humidity;BME280_pressure;Samples;Min_cycle;Max_cycle;Signal;HPM_P1;HPM_P2
2021/09/27 00:00:37;;;;;;;6.17;5.23;;;18.50;86.30;;;;;;10468434;28;20224;-70
2021/09/27 00:05:59;;;;;;;5.50;5.00;;;18.50;86.30;;;;;;10450795;28;20189;-69
2021/09/27 00:11:24;;;;;;;5.47;4.93;;;18.50;86.30;;;;;;10459373;28;20224;-69
2021/09/27 00:16:47;;;;;;;5.70;5.20;;;18.50;86.30;;;;;;10484866;28;20210;-70
2021/09/27 00:22:10;;;;;;;5.97;5.10;;;18.50;86.40;;;;;;10489303;28;20208;-70
2021/09/27 00:27:32;;;;;;;5.60;5.00;;;18.50;86.40;;;;;;10491746;28;20559;-69
2021/09/27 00:32:56;;;;;;;5.87;5.27;;;18.50;86.40;;;;;;10491484;28;20199;-70
2021/09/27 00:38:19;;;;;;;6.37;5.53;;;18.50;86.40;;;;;;10496458;28;20216;-68
2021/09/27 00:43:42;;;;;;;6.80;5.30;;;18.50;86.40;;;;;;10490513;28;20188;-69
2021/09/27 00:49:06;;;;;;;6.00;5.40;;;18.50;86.40;;;;;;10466650;28;20216;-69
2021/09/27 00:54:33;;;;;;;5.57;5.07;;;18.50;86.50;;;;;;10459140;28;20208;-69
2021/09/27 00:59:57;;;;;;;6.17;5.10;;;18.60;86.70;;;;;;10457619;28;20209;-69
2021/09/27 01:05:23;;;;;;;6.43;5.67;;;18.50;86.70;;;;;;10459980;28;20185;-70
2021/09/27 01:11:03;;;;;;;5.70;5.20;;;18.50;86.80;;;;;;10457459;28;20212;-70
2021/09/27 01:16:31;;;;;;;7.37;5.40;;;18.60;86.90;;;;;;10457012;28;20190;-70
2021/09/27 01:22:02;;;;;;;5.27;4.77;;;18.50;86.90;;;;;;10456459;28;20204;-69
2021/09/27 01:27:55;;;;;;;5.27;4.77;;;18.50;86.90;;;;;;10456584;28;20656;-69
2021/09/27 01:33:23;;;;;;;6.00;5.13;;;18.50;86.60;;;;;;10455755;28;20185;-70
2021/09/27 01:38:57;;;;;;;7.57;6.23;;;18.60;86.80;;;;;;10484621;28;20204;-70
2021/09/27 01:44:31;;;;;;;6.20;5.57;;;18.50;86.80;;;;;;10493529;28;20188;-70
2021/09/27 01:50:02;;;;;;;5.70;5.20;;;18.50;86.80;;;;;;10459466;28;20212;-70
2021/09/27 01:55:31;;;;;;;6.17;4.93;;;18.50;86.80;;;;;;10455619;28;20189;-70
2021/09/27 02:00:57;;;;;;;6.07;5.27;;;18.50;86.70;;;;;;10458026;28;20676;-68
2021/09/27 02:06:25;;;;;;;5.60;5.10;;;18.60;86.80;;;;;;10464112;28;20195;-70
2021/09/27 02:11:53;;;;;;;6.63;5.93;;;18.60;86.90;;;;;;10489081;28;20291;-70
2021/09/27 02:17:21;;;;;;;6.37;5.63;;;18.50;86.90;;;;;;10495211;28;20524;-70
2021/09/27 02:22:51;;;;;;;6.47;5.87;;;18.60;87.00;;;;;;10491207;28;20191;-70
2021/09/27 02:28:17;;;;;;;8.60;6.10;;;18.50;87.00;;;;;;10495204;28;20212;-70
2021/09/27 02:33:45;;;;;;;6.33;5.73;;;18.50;86.90;;;;;;10477935;28;20208;-70
2021/09/27 02:39:16;;;;;;;5.63;5.13;;;18.50;86.90;;;;;;10466914;28;20706;-68
2021/09/27 02:44:38;;;;;;;6.23;5.63;;;18.60;87.00;;;;;;10495344;28;20180;-69
2021/09/27 02:50:03;;;;;;;7.20;5.83;;;18.60;87.00;;;;;;10482571;28;20208;-70
2021/09/27 02:55:36;;;;;;;6.67;5.97;;;18.50;87.00;;;;;;10493871;28;20647;-69
2021/09/27 03:01:04;;;;;;;6.70;6.10;;;18.50;87.10;;;;;;10488170;28;20351;-70
2021/09/27 03:06:37;;;;;;;7.27;6.27;;;18.50;87.10;;;;;;10453985;28;20200;-70
2021/09/27 03:12:18;;;;;;;7.27;6.53;;;18.50;87.10;;;;;;10455464;28;20217;-69
2021/09/27 03:17:48;;;;;;;7.00;6.30;;;18.50;87.10;;;;;;10469406;28;20196;-69
2021/09/27 03:23:18;;;;;;;6.73;6.03;;;18.50;87.10;;;;;;10491215;28;20200;-69
2021/09/27 03:28:54;;;;;;;8.10;6.67;;;18.50;87.00;;;;;;10493608;28;20224;-70
2021/09/27 03:34:28;;;;;;;6.93;6.27;;;18.50;87.00;;;;;;10493223;28;20195;-69
2021/09/27 03:40:02;;;;;;;7.60;6.77;;;18.60;87.10;;;;;;10493248;28;20212;-67
2021/09/27 03:45:33;;;;;;;7.50;6.20;;;18.50;87.00;;;;;;10492840;28;20185;-69
2021/09/27 03:51:01;;;;;;;7.60;6.23;;;18.60;87.10;;;;;;10451480;28;20220;-69
2021/09/27 03:56:28;;;;;;;7.00;6.30;;;18.50;87.00;;;;;;10451093;28;20196;-70
2021/09/27 04:01:57;;;;;;;7.37;6.03;;;18.50;87.10;;;;;;10481946;28;20216;-67
2021/09/27 04:07:25;;;;;;;6.27;5.67;;;18.60;87.10;;;;;;10492634;28;20184;-70
2021/09/27 04:13:02;;;;;;;7.03;6.33;;;18.60;87.10;;;;;;10500503;28;20208;-70
2021/09/27 04:18:35;;;;;;;6.80;6.10;;;18.60;87.20;;;;;;10490217;28;20227;-70
2021/09/27 04:24:08;;;;;;;7.50;6.40;;;18.60;87.30;;;;;;10497380;28;20196;-70
2021/09/27 04:30:03;;;;;;;7.13;6.43;;;18.50;87.30;;;;;;10496472;28;20746;-70
2021/09/27 04:35:37;;;;;;;7.27;6.50;;;18.60;87.30;;;;;;10488859;28;20205;-70
2021/09/27 04:41:24;;;;;;;7.17;5.63;;;18.60;87.40;;;;;;10476250;28;20209;-70
2021/09/27 04:46:53;;;;;;;7.47;6.37;;;18.60;87.30;;;;;;10464295;28;20586;-70
2021/09/27 04:52:25;;;;;;;6.50;5.87;;;18.60;87.50;;;;;;10459977;28;20228;-70
2021/09/27 04:58:04;;;;;;;6.73;6.03;;;18.60;87.50;;;;;;10456291;28;20216;-70
2021/09/27 05:03:46;;;;;;;7.27;6.33;;;18.50;87.60;;;;;;10496445;22;20254;-70
2021/09/27 05:09:23;;;;;;;6.50;5.90;;;18.50;87.60;;;;;;10527390;28;20219;-68
2021/09/27 05:15:16;;;;;;;6.00;5.30;;;18.50;87.60;;;;;;10508805;28;20218;-70
2021/09/27 05:20:54;;;;;;;6.20;5.53;;;18.50;88.10;;;;;;10504886;28;20181;-69
2021/09/27 05:26:36;;;;;;;6.67;5.93;;;18.60;87.60;;;;;;10498087;28;20207;-70
2021/09/27 05:32:25;;;;;;;5.63;5.00;;;18.60;87.60;;;;;;10497186;28;20212;-69
2021/09/27 05:37:59;;;;;;;5.77;5.10;;;18.60;88.00;;;;;;10497354;28;20192;-70
2021/09/27 05:43:36;;;;;;;6.10;5.27;;;18.50;87.40;;;;;;10496963;28;20213;-69
2021/09/27 05:49:07;;;;;;;6.03;5.43;;;18.60;87.40;;;;;;10526161;28;20211;-70
2021/09/27 05:54:39;;;;;;;5.80;4.77;;;18.50;87.40;;;;;;10528981;28;20212;-69
2021/09/27 06:00:10;;;;;;;5.70;5.03;;;18.50;87.40;;;;;;10536764;28;20179;-69
2021/09/27 06:05:43;;;;;;;7.00;5.93;;;18.50;87.40;;;;;;10537807;28;20215;-70
2021/09/27 06:11:13;;;;;;;5.33;4.83;;;18.60;87.50;;;;;;10528168;28;20220;-70
2021/09/27 06:16:55;;;;;;;6.33;5.00;;;18.50;87.30;;;;;;10519499;28;20192;-70
2021/09/27 06:22:37;;;;;;;7.20;5.87;;;18.50;87.40;;;;;;10517713;28;20211;-68
2021/09/27 06:28:08;;;;;;;7.77;6.87;;;18.60;88.20;;;;;;10511905;28;20194;-69
2021/09/27 06:33:37;;;;;;;10.27;8.00;;;18.50;88.30;;;;;;10492461;28;20679;-68
2021/09/27 06:39:03;;;;;;;6.10;5.50;;;18.50;88.50;;;;;;10497898;28;20587;-69
2021/09/27 06:44:26;;;;;;;7.47;6.77;;;18.50;88.50;;;;;;10496088;28;20204;-69
2021/09/27 06:49:49;;;;;;;6.90;6.27;;;18.50;88.50;;;;;;10498748;28;20212;-68
2021/09/27 06:55:13;;;;;;;8.63;7.63;;;18.50;88.70;;;;;;10514733;28;20246;-69
2021/09/27 07:00:35;;;;;;;8.93;7.67;;;18.50;88.80;;;;;;10533954;28;20187;-69
2021/09/27 07:05:59;;;;;;;8.63;7.77;;;18.50;88.70;;;;;;10527310;28;20212;-70
2021/09/27 07:11:21;;;;;;;10.27;9.13;;;18.50;88.50;;;;;;10494039;28;20212;-70
2021/09/27 07:16:44;;;;;;;11.57;9.40;;;18.50;88.80;;;;;;10505716;28;20191;-69
2021/09/27 07:22:08;;;;;;;11.60;10.03;;;18.50;89.20;;;;;;10517258;28;20223;-69
2021/09/27 07:27:30;;;;;;;10.67;9.57;;;18.50;88.90;;;;;;10512258;28;20608;-70
2021/09/27 07:32:52;;;;;;;12.70;10.23;;;18.60;89.40;;;;;;10499040;28;20212;-69
2021/09/27 07:38:16;;;;;;;11.87;9.83;;;18.60;90.00;;;;;;10495363;28;20555;-69
2021/09/27 07:43:38;;;;;;;10.80;9.70;;;18.60;90.10;;;;;;10518838;28;20211;-69
2021/09/27 07:49:01;;;;;;;11.43;10.27;;;18.60;90.20;;;;;;10506836;28;20655;-70
2021/09/27 07:54:24;;;;;;;11.07;9.10;;;18.60;90.30;;;;;;10522589;28;20222;-70
2021/09/27 07:59:48;;;;;;;8.63;7.73;;;18.60;89.90;;;;;;10526989;28;20652;-70
2021/09/27 08:05:14;;;;;;;8.37;7.53;;;18.70;88.10;;;;;;10529941;28;20220;-69
2021/09/27 08:10:40;;;;;;;8.33;7.50;;;18.70;86.70;;;;;;10515971;28;20219;-69
2021/09/27 08:16:02;;;;;;;9.10;8.20;;;18.80;85.60;;;;;;10507469;28;20212;-70
2021/09/27 08:21:24;;;;;;;8.13;7.20;;;18.80;84.80;;;;;;10497574;28;20216;-71
2021/09/27 08:26:48;;;;;;;7.57;6.77;;;18.90;84.10;;;;;;10516221;28;20199;-71
2021/09/27 08:32:10;;;;;;;7.40;6.70;;;18.90;83.10;;;;;;10515983;28;20212;-71
2021/09/27 08:37:32;;;;;;;6.57;5.90;;;18.90;82.50;;;;;;10502933;28;20208;-71
2021/09/27 08:42:56;;;;;;;6.37;5.77;;;18.90;81.90;;;;;;10498973;28;20208;-71
2021/09/27 08:48:31;;;;;;;7.07;5.17;;;18.90;81.40;;;;;;10522428;28;20558;-71
2021/09/27 08:53:54;;;;;;;5.07;4.63;;;19.00;81.00;;;;;;10523940;28;20227;-70
2021/09/27 08:59:28;;;;;;;4.70;4.30;;;19.10;80.70;;;;;;10499300;28;20200;-70
2021/09/27 09:05:09;;;;;;;4.93;4.50;;;19.10;80.30;;;;;;10535917;28;20424;-70
2021/09/27 09:10:41;;;;;;;4.97;4.30;;;19.20;79.00;;;;;;10516006;28;20211;-69
2021/09/27 09:16:11;;;;;;;5.10;3.83;;;19.20;79.30;;;;;;10539793;28;20187;-69
2021/09/27 09:21:36;;;;;;;3.50;3.20;;;19.20;79.10;;;;;;10539837;28;20204;-70
2021/09/27 09:27:01;;;;;;;6.03;3.63;;;19.10;78.80;;;;;;10503402;28;20184;-69
2021/09/27 09:32:28;;;;;;;4.00;3.70;;;19.20;78.60;;;;;;10514870;28;20230;-70
2021/09/27 09:37:54;;;;;;;4.07;3.63;;;19.20;78.30;;;;;;10497635;28;20185;-70
2021/09/27 09:43:28;;;;;;;3.80;3.50;;;19.20;78.10;;;;;;10528822;28;20693;-70
2021/09/27 09:49:07;;;;;;;3.70;3.40;;;19.20;77.80;;;;;;10509513;28;20180;-70
2021/09/27 09:54:38;;;;;;;3.60;3.30;;;19.20;77.60;;;;;;10497482;28;20219;-69
2021/09/27 10:00:07;;;;;;;3.93;3.40;;;19.10;78.30;;;;;;10494898;28;20191;-68
2021/09/27 10:05:38;;;;;;;6.07;5.23;;;19.10;79.60;;;;;;10499891;28;20690;-69
2021/09/27 10:11:03;;;;;;;5.07;4.57;;;19.00;81.20;;;;;;10529572;28;20208;-69
2021/09/27 10:16:41;;;;;;;5.20;4.70;;;19.00;81.10;;;;;;10495475;28;20199;-69
2021/09/27 10:22:11;;;;;;;5.87;5.10;;;19.10;80.10;;;;;;10518921;28;20220;-69
2021/09/27 10:27:37;;;;;;;6.30;5.27;;;19.10;79.80;;;;;;10536602;28;20261;-69
2021/09/27 10:33:10;;;;;;;6.40;5.53;;;19.10;79.40;;;;;;10532542;28;20241;-69
2021/09/27 10:38:40;;;;;;;5.80;5.20;;;19.10;79.30;;;;;;10507266;28;20199;-67
2021/09/27 10:44:07;;;;;;;6.80;6.00;;;19.20;79.20;;;;;;10509882;28;20212;-69
2021/09/27 10:49:33;;;;;;;6.07;5.50;;;19.20;78.90;;;;;;10521806;28;20270;-69
2021/09/27 10:55:00;;;;;;;6.47;5.37;;;19.20;78.50;;;;;;10536870;28;20206;-67
2021/09/27 11:00:41;;;;;;;6.00;5.50;;;19.20;78.30;;;;;;10528817;28;20647;-69
2021/09/27 11:06:22;;;;;;;6.00;5.50;;;19.20;77.90;;;;;;10544943;22;20216;-62
2021/09/27 11:11:59;;;;;;;6.97;6.00;;;19.20;77.90;;;;;;10532784;28;20216;-65
2021/09/27 11:17:30;;;;;;;7.20;6.50;;;19.30;77.90;;;;;;10486355;28;20207;-61
2021/09/27 11:23:09;;;;;;;8.33;7.30;;;19.20;78.90;;;;;;10490248;28;20239;-61
2021/09/27 11:28:45;;;;;;;8.97;7.60;;;19.20;80.40;;;;;;10472086;28;20201;-61
2021/09/27 11:34:42;;;;;;;9.20;7.50;;;19.20;81.80;;;;;;10476902;28;20233;-57
2021/09/27 11:40:26;;;;;;;9.67;8.77;;;19.20;81.00;;;;;;10483315;28;20685;-60
2021/09/27 11:45:57;;;;;;;9.40;8.43;;;19.20;81.60;;;;;;10484154;28;20196;-61
2021/09/27 11:51:29;;;;;;;10.27;9.23;;;19.30;81.10;;;;;;10489809;28;20273;-59
2021/09/27 11:57:12;;;;;;;11.53;9.07;;;19.30;82.30;;;;;;10471855;28;20196;-59
2021/09/27 12:02:45;;;;;;;10.03;8.63;;;19.40;80.90;;;;;;10487097;28;20219;-61
2021/09/27 12:08:12;;;;;;;9.07;7.73;;;19.40;81.40;;;;;;10486047;28;20204;-61
2021/09/27 12:13:41;;;;;;;8.07;7.27;;;19.40;80.20;;;;;;10486042;28;20212;-60
2021/09/27 12:19:17;;;;;;;8.67;7.83;;;19.40;79.70;;;;;;10491445;28;20204;-60
2021/09/27 12:24:42;;;;;;;8.73;7.83;;;19.40;79.70;;;;;;10484755;28;20193;-62
2021/09/27 12:30:07;;;;;;;8.17;7.37;;;19.40;80.00;;;;;;10455564;28;20243;-62
2021/09/27 12:35:36;;;;;;;9.63;8.00;;;19.40;79.70;;;;;;10491811;28;20738;-59
2021/09/27 12:41:01;;;;;;;7.53;6.83;;;19.40;79.70;;;;;;10491088;28;20725;-61
2021/09/27 12:46:27;;;;;;;7.07;6.37;;;19.40;79.40;;;;;;10505510;28;20250;-60
2021/09/27 12:51:55;;;;;;;9.57;7.17;;;19.40;79.60;;;;;;10470505;28;20221;-62
2021/09/27 12:57:25;;;;;;;6.87;5.83;;;19.40;79.20;;;;;;10449879;28;20308;-60
2021/09/27 13:02:48;;;;;;;15.00;6.97;;;19.40;79.00;;;;;;10484735;28;20513;-61
2021/09/27 13:08:25;;;;;;;6.17;5.57;;;19.50;78.90;;;;;;10469554;28;20197;-61
2021/09/27 13:13:59;;;;;;;9.23;6.07;;;19.50;77.60;;;;;;10454903;28;20729;-60
2021/09/27 13:19:42;;;;;;;8.40;6.23;;;19.50;77.70;;;;;;10476825;28;20221;-62
2021/09/27 13:25:13;;;;;;;7.03;5.40;;;19.50;77.40;;;;;;10490460;28;20192;-61
2021/09/27 13:30:37;;;;;;;5.83;5.27;;;19.40;78.00;;;;;;10463742;28;20217;-61
2021/09/27 13:36:01;;;;;;;6.27;5.30;;;19.40;78.80;;;;;;10478533;28;20193;-62
2021/09/27 13:41:37;;;;;;;6.77;5.80;;;19.30;80.30;;;;;;10490147;28;20220;-62
2021/09/27 13:47:00;;;;;;;9.20;6.50;;;19.30;81.70;;;;;;10489951;28;20196;-60
2021/09/27 13:52:29;;;;;;;6.10;5.50;;;19.20;82.80;;;;;;10482822;28;20231;-61
2021/09/27 13:57:52;;;;;;;5.23;4.60;;;19.30;81.20;;;;;;10480490;28;20540;-62
2021/09/27 14:03:15;;;;;;;5.27;4.77;;;19.30;79.80;;;;;;10451445;28;20217;-59
2021/09/27 14:08:37;;;;;;;5.40;4.90;;;19.30;78.90;;;;;;10451181;28;20209;-58
2021/09/27 14:14:01;;;;;;;5.27;4.77;;;19.40;78.30;;;;;;10483537;28;20304;-58
2021/09/27 14:19:23;;;;;;;5.40;4.90;;;19.40;77.90;;;;;;10472340;28;20201;-59
2021/09/27 14:24:46;;;;;;;5.60;5.00;;;19.40;78.40;;;;;;10471245;28;20192;-60
2021/09/27 14:30:11;;;;;;;7.50;5.97;;;19.30;79.90;;;;;;10499882;28;20219;-62
2021/09/27 14:35:36;;;;;;;6.80;5.97;;;19.30;81.20;;;;;;10499649;28;20192;-60
2021/09/27 14:40:58;;;;;;;5.97;5.47;;;19.30;82.10;;;;;;10504749;28;20205;-61
2021/09/27 14:46:22;;;;;;;5.80;5.20;;;19.20;82.30;;;;;;10475724;28;20538;-61
2021/09/27 14:51:44;;;;;;;5.50;5.00;;;19.30;80.50;;;;;;10474468;28;20711;-61
2021/09/27 14:57:06;;;;;;;5.17;4.67;;;19.30;79.30;;;;;;10499781;28;20208;-60
2021/09/27 15:02:30;;;;;;;6.10;5.50;;;19.30;78.40;;;;;;10461725;28;20224;-60
2021/09/27 15:07:52;;;;;;;5.57;5.07;;;19.40;77.90;;;;;;10463614;28;20205;-60
2021/09/27 15:13:15;;;;;;;5.97;5.00;;;19.40;79.10;;;;;;10483869;28;20349;-60
2021/09/27 15:18:38;;;;;;;4.90;4.40;;;19.30;80.40;;;;;;10499123;28;20196;-62
2021/09/27 15:24:00;;;;;;;4.23;3.93;;;19.40;79.60;;;;;;10497297;28;20235;-62
2021/09/27 15:29:26;;;;;;;5.20;4.37;;;19.40;78.50;;;;;;10471521;28;20208;-62
2021/09/27 15:34:51;;;;;;;5.17;4.40;;;19.50;78.20;;;;;;10449472;28;20215;-61
2021/09/27 15:40:14;;;;;;;4.63;4.20;;;19.50;79.40;;;;;;10449365;28;20221;-61
2021/09/27 15:45:37;;;;;;;4.90;4.30;;;19.40;80.30;;;;;;10450977;28;20200;-62
2021/09/27 15:51:00;;;;;;;4.50;4.10;;;19.40;79.20;;;;;;10482756;28;20578;-59
2021/09/27 15:56:23;;;;;;;4.30;3.90;;;19.50;78.40;;;;;;10496011;28;20193;-61
2021/09/27 16:01:46;;;;;;;5.20;4.10;;;19.50;78.20;;;;;;10488152;28;20212;-61
2021/09/27 16:07:10;;;;;;;3.83;3.53;;;19.50;79.30;;;;;;10501726;28;20206;-60
2021/09/27 16:12:32;;;;;;;3.70;3.40;;;19.40;80.40;;;;;;10500702;28;20246;-62
2021/09/27 16:17:54;;;;;;;4.67;4.00;;;19.40;79.30;;;;;;10466052;28;20197;-60
2021/09/27 16:23:18;;;;;;;3.90;3.60;;;19.50;78.60;;;;;;10460236;28;20217;-62
2021/09/27 16:28:41;;;;;;;4.33;3.67;;;19.40;79.40;;;;;;10461233;28;20197;-61
2021/09/27 16:34:05;;;;;;;3.57;3.27;;;19.40;80.50;;;;;;10456912;28;20224;-61
2021/09/27 16:39:31;;;;;;;4.53;3.43;;;19.40;81.00;;;;;;10467840;28;20228;-60
2021/09/27 16:44:54;;;;;;;4.17;3.77;;;19.40;81.50;;;;;;10496870;28;20207;-62
2021/09/27 16:50:17;;;;;;;4.10;3.80;;;19.40;82.90;;;;;;10463848;28;20221;-61
2021/09/27 16:55:40;;;;;;;5.73;4.33;;;19.40;83.20;;;;;;10481489;28;20740;-61
2021/09/27 17:01:03;;;;;;;5.50;3.97;;;19.40;83.50;;;;;;10485518;28;20216;-61
2021/09/27 17:06:28;;;;;;;4.50;4.10;;;19.30;83.50;;;;;;10498560;22;20687;-65
2021/09/27 17:11:52;;;;;;;5.30;4.47;;;19.30;83.60;;;;;;10501935;28;20208;-66
2021/09/27 17:22:56;;;;;;;5.10;4.57;;;19.30;83.60;;;;;;10454632;28;20213;-66
2021/09/27 17:28:23;;;;;;;5.00;4.30;;;19.30;83.70;;;;;;10443694;28;20672;-66
2021/09/27 17:33:48;;;;;;;4.90;4.43;;;19.30;83.70;;;;;;10451712;28;20232;-66
2021/09/27 17:39:13;;;;;;;4.60;4.20;;;19.30;83.80;;;;;;10454824;28;20197;-66
2021/09/27 17:44:37;;;;;;;4.67;4.27;;;19.30;83.80;;;;;;10455042;28;20838;-66
2021/09/27 17:49:59;;;;;;;4.97;4.27;;;19.20;83.70;;;;;;10455026;28;20185;-66
2021/09/27 17:55:21;;;;;;;4.87;3.87;;;19.20;83.70;;;;;;10443930;28;20217;-66
2021/09/27 18:00:47;;;;;;;5.00;4.57;;;19.20;83.70;;;;;;10444152;28;20193;-68
2021/09/27 18:06:09;;;;;;;4.63;4.23;;;19.20;83.80;;;;;;10444818;28;20208;-65
2021/09/27 18:11:32;;;;;;;5.07;4.57;;;19.20;83.80;;;;;;10444272;28;20221;-65
2021/09/27 18:16:55;;;;;;;4.63;4.07;;;19.20;83.70;;;;;;10454602;28;20213;-64
2021/09/27 18:22:17;;;;;;;4.67;4.27;;;19.20;83.80;;;;;;10454126;28;20204;-66
2021/09/27 18:27:40;;;;;;;4.53;4.10;;;19.20;84.30;;;;;;10444517;28;20199;-65
2021/09/27 18:33:10;;;;;;;4.57;4.17;;;19.20;83.80;;;;;;10447208;28;20214;-65
2021/09/27 18:38:32;;;;;;;4.70;4.30;;;19.20;83.80;;;;;;10445841;28;20568;-66
2021/09/27 18:43:54;;;;;;;4.77;4.37;;;19.20;83.70;;;;;;10446824;28;20221;-65
2021/09/27 18:49:22;;;;;;;4.70;4.30;;;19.20;83.80;;;;;;10449704;28;20199;-66
2021/09/27 18:54:44;;;;;;;4.83;4.43;;;19.20;83.80;;;;;;10452687;28;20595;-65
2021/09/27 19:00:08;;;;;;;4.40;4.00;;;19.20;83.80;;;;;;10451418;28;20188;-65
2021/09/27 19:05:34;;;;;;;4.73;4.30;;;19.20;83.80;;;;;;10453208;28;20224;-65
2021/09/27 19:10:58;;;;;;;4.67;4.13;;;19.20;83.80;;;;;;10449292;28;20655;-65
2021/09/27 19:16:20;;;;;;;5.17;4.67;;;19.20;83.80;;;;;;10450334;28;20228;-65
2021/09/27 19:21:44;;;;;;;4.07;3.67;;;19.20;83.80;;;;;;10453481;28;20182;-65
2021/09/27 19:27:07;;;;;;;4.50;4.10;;;19.10;83.80;;;;;;10448718;28;20202;-65
2021/09/27 19:32:30;;;;;;;4.27;3.87;;;19.10;83.80;;;;;;10454813;28;20212;-66
2021/09/27 19:37:54;;;;;;;4.27;3.87;;;19.10;84.30;;;;;;10456128;28;20191;-66
2021/09/27 19:43:18;;;;;;;4.57;4.17;;;19.10;83.80;;;;;;10458542;28;20295;-66
2021/09/27 19:48:41;;;;;;;4.40;4.00;;;19.10;83.80;;;;;;10432254;28;20193;-66
2021/09/27 19:54:05;;;;;;;4.27;3.90;;;19.20;83.80;;;;;;10417416;28;20213;-65
2021/09/27 19:59:27;;;;;;;4.07;3.70;;;19.10;83.80;;;;;;10450958;28;20193;-65
2021/09/27 20:04:50;;;;;;;4.13;3.73;;;19.10;83.80;;;;;;10451726;28;20225;-66
2021/09/27 20:10:15;;;;;;;4.30;3.90;;;19.10;83.80;;;;;;10448850;28;20216;-65
2021/09/27 20:15:38;;;;;;;4.67;4.27;;;19.10;83.80;;;;;;10450117;28;20219;-66
2021/09/27 20:21:00;;;;;;;4.40;4.00;;;19.10;83.80;;;;;;10449610;28;20683;-65
2021/09/27 20:26:24;;;;;;;4.60;3.73;;;19.10;83.80;;;;;;10448964;28;20220;-65
2021/09/27 20:31:46;;;;;;;4.40;4.00;;;19.10;83.80;;;;;;10432152;28;20202;-66
2021/09/27 20:37:09;;;;;;;4.37;3.97;;;19.10;83.90;;;;;;10410133;28;20205;-65
2021/09/27 20:42:33;;;;;;;5.47;4.33;;;19.10;83.90;;;;;;10408217;28;20197;-65
2021/09/27 20:47:55;;;;;;;4.30;3.90;;;19.10;83.90;;;;;;10439830;28;20204;-65
2021/09/27 20:53:18;;;;;;;4.37;3.97;;;19.10;83.90;;;;;;10456288;28;20616;-65
2021/09/27 20:58:41;;;;;;;5.70;4.37;;;19.10;83.90;;;;;;10456973;28;20197;-65
2021/09/27 21:04:04;;;;;;;4.10;3.80;;;19.10;83.90;;;;;;10457710;28;20213;-65
2021/09/27 21:09:26;;;;;;;4.40;4.00;;;19.10;83.90;;;;;;10449702;28;20197;-65
2021/09/27 21:14:49;;;;;;;3.60;3.30;;;19.10;83.90;;;;;;10462176;28;20222;-65
2021/09/27 21:20:13;;;;;;;4.07;3.67;;;19.10;83.90;;;;;;10456256;28;20276;-65
2021/09/27 21:25:35;;;;;;;4.30;3.77;;;19.10;83.90;;;;;;10456552;28;20832;-65
2021/09/27 21:30:59;;;;;;;4.23;3.83;;;19.10;83.90;;;;;;10482661;28;20541;-66
2021/09/27 21:36:21;;;;;;;3.90;3.60;;;19.10;83.90;;;;;;10496519;28;20226;-65
2021/09/27 21:41:43;;;;;;;5.53;3.93;;;19.10;83.80;;;;;;10459231;28;20185;-65
2021/09/27 21:47:08;;;;;;;4.27;3.87;;;19.10;83.80;;;;;;10455660;28;20209;-65
2021/09/27 21:52:30;;;;;;;4.90;4.13;;;19.10;83.80;;;;;;10448587;28;20217;-65
2021/09/27 21:57:52;;;;;;;4.17;3.77;;;19.10;83.80;;;;;;10431327;28;20197;-65
2021/09/27 22:03:14;;;;;;;5.50;3.77;;;19.10;83.80;;;;;;10473114;28;20570;-66
2021/09/27 22:08:39;;;;;;;4.20;3.77;;;19.10;83.80;;;;;;10493134;28;20192;-66
2021/09/27 22:14:01;;;;;;;4.43;3.80;;;19.10;83.80;;;;;;10494233;28;20220;-65
2021/09/27 22:19:23;;;;;;;3.87;3.57;;;19.10;83.80;;;;;;10485195;28;20188;-66
2021/09/27 22:24:47;;;;;;;2.93;2.73;;;19.10;83.80;;;;;;10491970;28;20215;-66
2021/09/27 22:30:11;;;;;;;3.50;3.20;;;19.10;83.80;;;;;;10491411;28;20222;-66
2021/09/27 22:35:34;;;;;;;3.40;3.10;;;19.10;83.80;;;;;;10412753;28;20225;-66
2021/09/27 22:40:57;;;;;;;3.43;3.13;;;19.10;83.70;;;;;;10411652;28;20186;-66
2021/09/27 22:46:20;;;;;;;3.77;3.23;;;19.10;83.80;;;;;;10421085;28;20220;-66
2021/09/27 22:51:42;;;;;;;3.77;3.27;;;19.10;83.70;;;;;;10435981;28;20198;-65
2021/09/27 22:57:06;;;;;;;3.50;3.20;;;19.10;83.80;;;;;;10461045;28;20713;-65
2021/09/27 23:02:29;;;;;;;3.13;2.80;;;19.10;83.70;;;;;;10467489;28;20251;-65
2021/09/27 23:07:51;;;;;;;3.07;2.73;;;19.10;83.70;;;;;;10501283;22;20240;-61
2021/09/27 23:13:14;;;;;;;2.97;2.67;;;19.10;83.70;;;;;;10523818;28;20220;-61
2021/09/27 23:18:39;;;;;;;2.77;2.57;;;19.00;83.70;;;;;;10501795;28;20204;-61
2021/09/27 23:24:01;;;;;;;3.47;3.00;;;19.10;83.70;;;;;;10533677;28;20211;-61
2021/09/27 23:29:26;;;;;;;3.80;2.20;;;19.10;83.70;;;;;;10534929;28;20196;-61
2021/09/27 23:34:49;;;;;;;3.13;2.83;;;19.10;83.70;;;;;;10538985;28;20208;-60
2021/09/27 23:40:12;;;;;;;2.67;2.37;;;19.10;83.70;;;;;;10500175;28;20220;-60
2021/09/27 23:45:36;;;;;;;2.70;2.50;;;19.10;83.70;;;;;;10499083;28;20188;-61
2021/09/27 23:50:58;;;;;;;3.17;2.60;;;19.10;83.60;;;;;;10539774;28;20219;-61
2021/09/27 23:56:20;;;;;;;3.57;2.63;;;19.10;83.60;;;;;;10528574;28;20592;-62
